Green Garnet — 3FEH6 — position and weather

sailwx.info

Track history (hours):
 
Tides and Currents Weather Stations Pressure Air Temp Water Temp Dewpoint Dewpoint Depression Visibility Wind Speed Wind Dir Waves Ship Positions

Green Garnet

Last reported at 2017-Dec-11 16:58 UTC. Time now 2017-Dec-13 03:43 UTC.
Position N 33°44' W 118°14'.

Length 209 m; draft 8 m.

Type: Ship. MMSI: 356345000.

Date/timePositionNaut miles runAvg speedWind from/ knotsBaromVisibWave heightAir tempDewpointWater temp
2017-Dec-11 16:58N 33°44' W 118°14'1 0.7
2017-Dec-11 15:35N 33°44' W 118°12'1 7.1
2017-Dec-11 15:24N 33°43' W 118°11'3 8.6
2017-Dec-11 15:00N 33°40' W 118°11'3 5.7
2017-Dec-11 14:30N 33°37' W 118°10'5 9.3
2017-Dec-11 14:00N 33°33' W 118°09'510.5
2017-Dec-11 13:30N 33°28' W 118°07'811.1
2017-Dec-11 12:47N 33°20' W 118°03'311.2
2017-Dec-11 12:30N 33°17' W 118°02'611.3
2017-Dec-11 12:00N 33°12' W 117°59'611.4
2017-Dec-11 11:31N 33°07' W 117°55'611.5
2017-Dec-11 11:00N 33°02' W 117°56'612.8
2017-Dec-11 10:30N 32°56' W 117°59'912.4
2017-Dec-11 09:45N 32°48' W 118°06'312.4
2017-Dec-11 09:30N 32°45' W 118°07'711.9
2017-Dec-11 08:54N 32°41' W 118°14'511.9
2017-Dec-11 08:30N 32°38' W 118°18'12611.2
2017-Dec-10 21:15N 32°12' W 120°44'1013.3
2017-Dec-10 20:29N 32°12' W 120°56'4213.2
2017-Dec-10 17:17N 32°12' W 121°46'413.0
2017-Dec-10 17:00N 32°12' W 121°50'713.1
2017-Dec-10 16:30N 32°12' W 121°58'612.9
2017-Dec-10 16:00N 32°12' W 122°06'612.9
2017-Dec-10 15:31N 32°12' W 122°13'812.8
2017-Dec-10 14:52N 32°12' W 122°23'513.3
2017-Dec-10 14:30N 32°12' W 122°29'613.0
2017-Dec-10 14:00N 32°12' W 122°36'4112.9
2017-Dec-10 10:49N 32°12' W 123°25'412.8
2017-Dec-10 10:30N 32°12' W 123°30'712.8
2017-Dec-10 09:58N 32°12' W 123°38'612.5
2017-Dec-10 09:30N 32°12' W 123°45'612.6
2017-Dec-10 09:00N 32°14' W 123°52'713.3
2017-Dec-10 08:31N 32°17' W 123°59'613.0
2017-Dec-10 08:01N 32°20' W 124°06'713.3
2017-Dec-10 07:31N 32°22' W 124°13'714.0
2017-Dec-10 07:00N 32°26' W 124°20'713.9
2017-Dec-10 06:30N 32°29' W 124°28'713.9
2017-Dec-10 06:00N 32°32' W 124°35'713.8
2017-Dec-10 05:29N 32°35' W 124°43'714.1
2017-Dec-10 05:00N 32°38' W 124°50'1514.3
2017-Dec-10 03:55N 32°45' W 125°06'614.3
2017-Dec-10 03:30N 32°47' W 125°13'814.4
2017-Dec-10 02:56N 32°51' W 125°21'614.3
2017-Dec-10 02:30N 32°54' W 125°28'714.1
2017-Dec-10 02:00N 32°57' W 125°36'713.9
2017-Dec-10 01:30N 32°60' W 125°43'713.9
2017-Dec-10 01:00N 33°03' W 125°50'714.0
2017-Dec-10 00:30N 33°06' W 125°58'714.0
2017-Dec-10 00:00N 33°09' W 126°05'713.9
2017-Dec-09 23:29N 33°12' W 126°13'713.9
2017-Dec-09 23:00N 33°15' W 126°21'  
Track history (hours):
 
Tides and Currents Weather Stations Pressure Air Temp Water Temp Dewpoint Dewpoint Depression Visibility Wind Speed Wind Dir Waves Ship Positions

Green Garnet

Last reported at 2017-Dec-11 16:58 UTC. Time now 2017-Dec-13 03:43 UTC.
Position N 33°44' W 118°14'.

Length 209 m; draft 8 m.

Type: Ship. MMSI: 356345000.

Date/timePositionNaut miles runAvg speedWind from/ knotsBaromVisibWave heightAir tempDewpointWater temp
2017-Dec-11 16:58N 33°44' W 118°14'1 0.7
2017-Dec-11 15:35N 33°44' W 118°12'1 7.1
2017-Dec-11 15:24N 33°43' W 118°11'3 8.6
2017-Dec-11 15:00N 33°40' W 118°11'3 5.7
2017-Dec-11 14:30N 33°37' W 118°10'5 9.3
2017-Dec-11 14:00N 33°33' W 118°09'510.5
2017-Dec-11 13:30N 33°28' W 118°07'811.1
2017-Dec-11 12:47N 33°20' W 118°03'311.2
2017-Dec-11 12:30N 33°17' W 118°02'611.3
2017-Dec-11 12:00N 33°12' W 117°59'611.4
2017-Dec-11 11:31N 33°07' W 117°55'611.5
2017-Dec-11 11:00N 33°02' W 117°56'612.8
2017-Dec-11 10:30N 32°56' W 117°59'912.4
2017-Dec-11 09:45N 32°48' W 118°06'312.4
2017-Dec-11 09:30N 32°45' W 118°07'711.9
2017-Dec-11 08:54N 32°41' W 118°14'511.9
2017-Dec-11 08:30N 32°38' W 118°18'12611.2
2017-Dec-10 21:15N 32°12' W 120°44'1013.3
2017-Dec-10 20:29N 32°12' W 120°56'4213.2
2017-Dec-10 17:17N 32°12' W 121°46'413.0
2017-Dec-10 17:00N 32°12' W 121°50'713.1
2017-Dec-10 16:30N 32°12' W 121°58'612.9
2017-Dec-10 16:00N 32°12' W 122°06'612.9
2017-Dec-10 15:31N 32°12' W 122°13'812.8
2017-Dec-10 14:52N 32°12' W 122°23'513.3
2017-Dec-10 14:30N 32°12' W 122°29'613.0
2017-Dec-10 14:00N 32°12' W 122°36'4112.9
2017-Dec-10 10:49N 32°12' W 123°25'412.8
2017-Dec-10 10:30N 32°12' W 123°30'712.8
2017-Dec-10 09:58N 32°12' W 123°38'612.5
2017-Dec-10 09:30N 32°12' W 123°45'612.6
2017-Dec-10 09:00N 32°14' W 123°52'713.3
2017-Dec-10 08:31N 32°17' W 123°59'613.0
2017-Dec-10 08:01N 32°20' W 124°06'713.3
2017-Dec-10 07:31N 32°22' W 124°13'714.0
2017-Dec-10 07:00N 32°26' W 124°20'713.9
2017-Dec-10 06:30N 32°29' W 124°28'713.9
2017-Dec-10 06:00N 32°32' W 124°35'713.8
2017-Dec-10 05:29N 32°35' W 124°43'714.1
2017-Dec-10 05:00N 32°38' W 124°50'1514.3
2017-Dec-10 03:55N 32°45' W 125°06'614.3
2017-Dec-10 03:30N 32°47' W 125°13'814.4
2017-Dec-10 02:56N 32°51' W 125°21'614.3
2017-Dec-10 02:30N 32°54' W 125°28'714.1
2017-Dec-10 02:00N 32°57' W 125°36'713.9
2017-Dec-10 01:30N 32°60' W 125°43'713.9
2017-Dec-10 01:00N 33°03' W 125°50'714.0
2017-Dec-10 00:30N 33°06' W 125°58'714.0
2017-Dec-10 00:00N 33°09' W 126°05'713.9
2017-Dec-09 23:29N 33°12' W 126°13'713.9
2017-Dec-09 23:00N 33°15' W 126°21'  

Dump ship's entire track history